createdAt,value
2023-02-19T00:01:22.076Z,3.50
2023-02-19T00:04:25.497Z,3.70
2023-02-19T00:07:28.767Z,3.10
2023-02-19T00:10:32.047Z,2.50
2023-02-19T00:13:44.167Z,3.20
2023-02-19T00:16:49.525Z,3.10
2023-02-19T00:19:52.926Z,2.90
2023-02-19T00:22:56.214Z,2.70
2023-02-19T00:26:17.612Z,2.50
2023-02-19T00:29:22.790Z,3.30
2023-02-19T00:32:26.774Z,4.00
2023-02-19T00:35:30.120Z,3.10
2023-02-19T00:38:37.209Z,3.20
2023-02-19T00:41:40.534Z,5.20
2023-02-19T00:44:43.908Z,4.50
2023-02-19T00:47:48.680Z,4.40
2023-02-19T00:50:51.968Z,5.60
2023-02-19T00:53:56.216Z,5.00
2023-02-19T00:57:00.718Z,7.20
2023-02-19T01:00:05.070Z,6.20
2023-02-19T01:03:08.458Z,5.20
2023-02-19T01:06:15.045Z,6.20
2023-02-19T01:09:18.261Z,5.40
2023-02-19T01:12:21.627Z,6.30
2023-02-19T01:15:25.334Z,6.20
2023-02-19T01:18:28.568Z,7.00
2023-02-19T01:21:32.143Z,5.90
2023-02-19T01:24:35.687Z,5.70
2023-02-19T01:27:38.824Z,7.20
2023-02-19T01:30:42.103Z,6.70
2023-02-19T01:33:47.031Z,7.80
2023-02-19T01:36:50.300Z,7.60
2023-02-19T01:39:53.687Z,7.30
2023-02-19T01:42:57.009Z,5.70
2023-02-19T01:46:00.859Z,5.90
2023-02-19T01:49:21.543Z,6.50
2023-02-19T01:52:32.740Z,6.50
2023-02-19T01:55:36.353Z,6.30
2023-02-19T01:58:40.393Z,6.00
2023-02-19T02:01:43.813Z,6.20
2023-02-19T02:04:47.499Z,7.60
2023-02-19T02:08:10.779Z,7.70
2023-02-19T02:11:14.272Z,6.90
2023-02-19T02:14:19.725Z,10.10
2023-02-19T02:17:36.744Z,8.00
2023-02-19T02:20:52.207Z,7.10
2023-02-19T02:24:14.050Z,6.10
2023-02-19T02:27:27.585Z,6.30
2023-02-19T02:30:48.888Z,7.50
2023-02-19T02:34:07.291Z,7.50
2023-02-19T02:37:12.276Z,6.10
2023-02-19T02:40:17.915Z,6.70
2023-02-19T02:43:21.392Z,6.90
2023-02-19T02:46:30.424Z,6.00
2023-02-19T02:49:55.673Z,7.40
2023-02-19T02:53:26.922Z,4.50
2023-02-19T02:56:31.662Z,4.70
2023-02-19T02:59:39.427Z,5.90
2023-02-19T03:02:44.018Z,5.10
2023-02-19T03:05:52.777Z,4.10
2023-02-19T03:09:19.357Z,4.30
2023-02-19T03:12:42.508Z,3.60
2023-02-19T03:16:10.250Z,3.80
2023-02-19T03:19:19.206Z,2.80
2023-02-19T03:22:27.708Z,3.70
2023-02-19T03:25:52.494Z,2.20
2023-02-19T03:29:22.628Z,2.30
2023-02-19T03:32:34.529Z,2.20
2023-02-19T03:35:44.925Z,2.90
2023-02-19T03:38:59.514Z,1.80
2023-02-19T03:42:18.062Z,2.50
2023-02-19T03:45:32.101Z,1.30
2023-02-19T03:48:38.348Z,1.50
2023-02-19T03:51:50.553Z,2.70
2023-02-19T03:55:02.845Z,2.40
2023-02-19T03:58:35.319Z,1.50
2023-02-19T04:01:43.427Z,1.40
2023-02-19T04:05:07.518Z,2.10
2023-02-19T04:08:16.151Z,2.20
2023-02-19T04:11:24.610Z,1.20
2023-02-19T04:14:34.904Z,1.90
2023-02-19T04:17:47.824Z,1.60
2023-02-19T04:20:51.644Z,1.80
2023-02-19T04:23:58.580Z,1.50
2023-02-19T04:27:02.788Z,2.20
2023-02-19T04:30:08.537Z,3.00
2023-02-19T04:33:11.773Z,2.50
2023-02-19T04:36:14.922Z,3.70
2023-02-19T04:39:18.155Z,4.30
2023-02-19T04:42:21.344Z,4.50
2023-02-19T04:45:24.562Z,4.50
2023-02-19T04:48:28.296Z,5.40
2023-02-19T04:51:31.480Z,4.70
2023-02-19T04:54:34.807Z,4.40
2023-02-19T04:57:38.025Z,6.20
2023-02-19T05:00:41.370Z,6.50
2023-02-19T05:03:44.851Z,4.80
2023-02-19T05:06:48.095Z,5.60
2023-02-19T05:09:51.323Z,6.10
2023-02-19T05:12:57.803Z,5.90
2023-02-19T05:16:07.422Z,6.00
2023-02-19T05:19:13.656Z,5.50
2023-02-19T05:22:17.191Z,5.40
2023-02-19T05:25:20.445Z,5.20
2023-02-19T05:28:28.846Z,6.60
2023-02-19T05:31:33.891Z,6.50
2023-02-19T05:34:37.323Z,8.00
2023-02-19T05:37:40.491Z,12.70
2023-02-19T05:40:44.809Z,11.50
2023-02-19T05:43:49.340Z,9.00
2023-02-19T05:46:52.539Z,8.60
2023-02-19T05:49:55.838Z,9.20
2023-02-19T05:53:05.713Z,10.10
2023-02-19T05:56:30.876Z,10.90
2023-02-19T05:59:34.061Z,13.40
2023-02-19T06:02:37.934Z,14.10
2023-02-19T06:05:41.234Z,14.50
2023-02-19T06:08:44.840Z,16.10
2023-02-19T06:11:48.049Z,17.40
2023-02-19T06:14:51.542Z,17.60
2023-02-19T06:17:55.007Z,17.60
2023-02-19T06:21:05.909Z,18.50
2023-02-19T06:24:10.002Z,19.20
2023-02-19T06:27:13.283Z,17.70
2023-02-19T06:30:16.631Z,16.60
2023-02-19T06:33:19.839Z,19.40
2023-02-19T06:36:23.851Z,17.90
2023-02-19T06:39:27.846Z,14.70
2023-02-19T06:42:33.880Z,15.60
2023-02-19T06:45:37.189Z,12.70
2023-02-19T06:48:41.657Z,13.60
2023-02-19T06:51:44.855Z,14.90
2023-02-19T06:54:48.041Z,11.10
2023-02-19T06:57:51.225Z,10.40
2023-02-19T07:00:54.764Z,10.80
2023-02-19T07:03:58.364Z,10.70
2023-02-19T07:07:01.562Z,15.10
2023-02-19T07:10:05.132Z,13.70
2023-02-19T07:13:08.311Z,15.70
2023-02-19T07:16:13.314Z,16.00
2023-02-19T07:19:16.853Z,16.40
2023-02-19T07:22:20.110Z,16.20
2023-02-19T07:25:23.318Z,16.70
2023-02-19T07:28:26.622Z,18.40
2023-02-19T07:31:30.053Z,21.70
2023-02-19T07:34:33.326Z,21.10
2023-02-19T07:37:36.575Z,23.70
2023-02-19T07:40:39.806Z,25.00
2023-02-19T07:43:43.221Z,26.70
2023-02-19T07:46:46.476Z,25.90
2023-02-19T07:49:49.662Z,21.10
2023-02-19T07:52:52.831Z,21.10
2023-02-19T07:56:06.927Z,17.50
2023-02-19T07:59:10.785Z,20.40
2023-02-19T08:02:37.372Z,18.00
2023-02-19T08:05:42.289Z,17.60
2023-02-19T08:08:45.559Z,16.60
2023-02-19T08:12:07.388Z,14.30
2023-02-19T08:15:10.603Z,16.00
2023-02-19T08:18:16.516Z,17.80
2023-02-19T08:21:20.700Z,20.20
2023-02-19T08:24:24.438Z,17.20
2023-02-19T08:27:27.732Z,14.80
2023-02-19T08:30:32.386Z,14.40
2023-02-19T08:33:36.759Z,13.20
2023-02-19T08:36:40.267Z,9.30
2023-02-19T08:39:43.597Z,10.90
2023-02-19T08:42:46.924Z,9.00
2023-02-19T08:45:54.614Z,12.00
2023-02-19T08:48:58.350Z,8.10
2023-02-19T08:52:01.907Z,11.80
2023-02-19T08:55:06.286Z,7.60
2023-02-19T08:58:11.620Z,7.90
2023-02-19T09:01:18.837Z,6.50
2023-02-19T09:04:22.463Z,5.70
2023-02-19T09:07:26.020Z,3.90
2023-02-19T09:10:29.262Z,5.20
2023-02-19T09:13:32.688Z,2.90
2023-02-19T09:16:37.101Z,5.00
2023-02-19T09:19:40.334Z,4.20
2023-02-19T09:22:43.571Z,5.80
2023-02-19T09:25:47.143Z,8.30
2023-02-19T09:28:50.722Z,7.20
2023-02-19T09:32:01.040Z,10.50
2023-02-19T09:36:05.867Z,5.10
2023-02-19T09:39:10.491Z,3.80
2023-02-19T09:42:24.804Z,3.80
2023-02-19T09:45:28.168Z,3.20
2023-02-19T09:48:32.268Z,4.30
2023-02-19T09:51:38.009Z,4.20
2023-02-19T09:54:41.951Z,2.90
2023-02-19T09:57:46.692Z,3.10
2023-02-19T10:00:51.152Z,4.10
2023-02-19T10:03:54.930Z,3.20
2023-02-19T10:07:03.520Z,3.00
2023-02-19T10:10:29.067Z,3.90
2023-02-19T10:13:37.750Z,4.50
2023-02-19T10:16:43.879Z,8.00
2023-02-19T10:19:47.159Z,3.40
2023-02-19T10:23:04.188Z,5.20
2023-02-19T10:26:07.397Z,3.70
2023-02-19T10:29:11.271Z,2.60
2023-02-19T10:32:24.048Z,8.70
2023-02-19T10:35:28.011Z,3.00
2023-02-19T10:38:40.661Z,2.90
2023-02-19T10:41:44.411Z,3.60
2023-02-19T10:44:53.868Z,4.40
2023-02-19T10:47:57.805Z,4.00
2023-02-19T10:51:08.643Z,6.40
2023-02-19T10:54:19.231Z,5.60
2023-02-19T10:57:34.036Z,5.40
2023-02-19T11:00:38.398Z,4.20
2023-02-19T11:03:42.148Z,3.50
2023-02-19T11:06:46.960Z,3.70
2023-02-19T11:09:53.782Z,5.40
2023-02-19T11:13:01.334Z,5.70
2023-02-19T11:16:05.499Z,6.30
2023-02-19T11:19:44.460Z,5.50
2023-02-19T11:22:49.368Z,9.20
2023-02-19T11:25:54.429Z,14.00
2023-02-19T11:28:59.969Z,7.60
2023-02-19T11:32:25.708Z,7.30
2023-02-19T11:35:29.973Z,6.20
2023-02-19T11:38:33.438Z,7.50
2023-02-19T11:41:47.639Z,8.10
2023-02-19T11:45:26.489Z,9.30
2023-02-19T11:48:38.740Z,9.80
2023-02-19T11:52:26.061Z,9.90
2023-02-19T11:56:16.843Z,7.90
2023-02-19T11:59:31.509Z,4.10
2023-02-19T12:02:46.112Z,4.50
2023-02-19T12:06:11.126Z,6.50
2023-02-19T12:09:24.313Z,4.30
2023-02-19T12:12:42.536Z,3.40
2023-02-19T12:16:00.922Z,71.90
2023-02-19T12:19:08.273Z,7.00
2023-02-19T12:22:22.266Z,3.90
2023-02-19T12:25:36.255Z,8.10
2023-02-19T12:28:45.271Z,5.80
2023-02-19T12:32:00.717Z,3.30
2023-02-19T12:35:15.836Z,5.50
2023-02-19T12:38:33.691Z,4.10
2023-02-19T12:42:06.300Z,5.40
2023-02-19T12:45:24.851Z,3.90
2023-02-19T12:48:39.818Z,5.10
2023-02-19T12:51:49.777Z,3.90
2023-02-19T12:54:56.354Z,5.40
2023-02-19T12:58:04.531Z,5.80
2023-02-19T13:01:18.910Z,3.00
2023-02-19T13:04:25.563Z,5.70
2023-02-19T13:07:39.408Z,5.90
2023-02-19T13:10:56.847Z,6.90
2023-02-19T13:14:26.424Z,4.40
2023-02-19T13:17:42.776Z,4.10
2023-02-19T13:20:48.823Z,6.90
2023-02-19T13:23:58.520Z,5.40
2023-02-19T13:27:23.956Z,5.00
2023-02-19T13:30:39.656Z,5.00
2023-02-19T13:34:05.918Z,8.80
2023-02-19T13:37:11.508Z,6.60
2023-02-19T13:40:35.616Z,9.60
2023-02-19T13:43:39.171Z,8.40
2023-02-19T13:46:45.456Z,8.60
2023-02-19T13:49:49.579Z,5.50
2023-02-19T13:52:55.070Z,9.30
2023-02-19T13:55:58.269Z,8.20
2023-02-19T13:59:25.594Z,9.80
2023-02-19T14:02:35.505Z,9.80
2023-02-19T14:06:04.404Z,5.10
2023-02-19T14:09:36.258Z,7.10
2023-02-19T14:12:39.583Z,8.80
2023-02-19T14:15:49.421Z,6.90
2023-02-19T14:18:52.896Z,8.30
2023-02-19T14:21:56.129Z,7.80
2023-02-19T14:25:00.653Z,8.70
2023-02-19T14:28:06.946Z,10.60
2023-02-19T14:31:19.650Z,7.80
2023-02-19T14:34:26.944Z,7.50
2023-02-19T14:37:30.354Z,6.40
2023-02-19T14:40:44.327Z,6.90
2023-02-19T14:43:50.925Z,7.20
2023-02-19T14:47:06.534Z,7.20
2023-02-19T14:50:29.519Z,5.60
2023-02-19T14:53:38.981Z,9.20
2023-02-19T14:56:46.860Z,7.00
2023-02-19T14:59:55.806Z,8.70
2023-02-19T15:02:59.874Z,7.70
2023-02-19T15:06:11.556Z,6.00
2023-02-19T15:09:16.551Z,7.50
2023-02-19T15:12:25.645Z,6.70
2023-02-19T15:15:32.697Z,10.20
2023-02-19T15:18:38.039Z,7.90
2023-02-19T15:21:46.726Z,10.70
2023-02-19T15:24:50.057Z,9.80
2023-02-19T15:27:53.316Z,10.20
2023-02-19T15:30:59.698Z,8.10
2023-02-19T15:34:02.987Z,9.60
2023-02-19T15:37:11.190Z,12.00
2023-02-19T15:40:15.484Z,11.20
2023-02-19T15:43:26.946Z,9.10
2023-02-19T15:46:31.020Z,10.40
2023-02-19T15:49:54.854Z,10.40
2023-02-19T15:53:12.736Z,10.70
2023-02-19T15:56:29.485Z,11.40
2023-02-19T15:59:36.785Z,9.40
2023-02-19T16:02:40.770Z,10.90
2023-02-19T16:05:44.222Z,10.80
2023-02-19T16:09:04.293Z,14.40
2023-02-19T16:12:23.147Z,9.10
2023-02-19T16:15:28.726Z,12.40
2023-02-19T16:18:32.469Z,13.70
2023-02-19T16:21:36.189Z,16.90
2023-02-19T16:24:45.454Z,13.80
2023-02-19T16:27:48.946Z,14.90
2023-02-19T16:30:58.324Z,14.50
2023-02-19T16:34:17.787Z,10.20
2023-02-19T16:37:41.889Z,10.90
2023-02-19T16:40:48.991Z,18.90
2023-02-19T16:43:52.176Z,11.40
2023-02-19T16:47:01.667Z,11.30
2023-02-19T16:50:41.746Z,9.80
2023-02-19T16:54:01.772Z,12.50
2023-02-19T16:57:46.020Z,11.50
2023-02-19T17:15:29.673Z,10.60
2023-02-19T17:18:39.296Z,11.10
2023-02-19T17:21:43.124Z,10.80
2023-02-19T17:24:47.475Z,12.70
2023-02-19T17:27:50.671Z,11.50
2023-02-19T17:30:54.245Z,13.80
2023-02-19T17:33:57.546Z,16.30
2023-02-19T17:37:00.819Z,17.40
2023-02-19T17:40:04.301Z,14.70
2023-02-19T17:43:08.092Z,12.00
2023-02-19T17:46:15.972Z,15.60
2023-02-19T17:49:19.740Z,17.50
2023-02-19T17:52:23.031Z,13.00
2023-02-19T17:55:29.668Z,13.60
2023-02-19T17:58:32.948Z,12.80
2023-02-19T18:01:36.358Z,12.30
2023-02-19T18:04:41.182Z,16.10
2023-02-19T18:07:45.826Z,15.30
2023-02-19T18:10:49.082Z,16.30
2023-02-19T18:13:52.675Z,18.90
2023-02-19T18:16:56.170Z,27.00
2023-02-19T18:20:44.989Z,26.10
2023-02-19T18:23:48.293Z,26.50
2023-02-19T18:26:51.484Z,28.90
2023-02-19T18:29:56.380Z,18.50
2023-02-19T18:32:59.569Z,10.60
2023-02-19T18:36:03.751Z,11.10
2023-02-19T18:39:07.136Z,10.50
2023-02-19T18:42:12.589Z,8.90
2023-02-19T18:45:17.066Z,10.90
2023-02-19T18:48:21.480Z,8.50
2023-02-19T18:51:35.651Z,9.30
2023-02-19T18:54:39.690Z,13.10
2023-02-19T18:57:44.131Z,12.00
2023-02-19T19:00:47.331Z,15.20
2023-02-19T19:03:50.658Z,14.20
2023-02-19T19:06:53.934Z,12.50
2023-02-19T19:10:08.100Z,11.30
2023-02-19T19:13:11.454Z,8.00
2023-02-19T19:16:26.690Z,8.10
2023-02-19T19:19:29.952Z,10.40
2023-02-19T19:22:50.430Z,8.00
2023-02-19T19:26:07.652Z,8.30
2023-02-19T19:29:12.148Z,8.70
2023-02-19T19:32:15.770Z,11.40
2023-02-19T19:35:20.145Z,8.90
2023-02-19T19:38:23.745Z,13.90
2023-02-19T19:41:26.971Z,12.20
2023-02-19T19:44:30.269Z,11.40
2023-02-19T19:47:33.557Z,15.20
2023-02-19T19:50:36.755Z,15.90
2023-02-19T19:53:40.143Z,14.30
2023-02-19T19:56:45.850Z,19.10
2023-02-19T19:59:51.281Z,22.20
2023-02-19T20:02:54.587Z,16.90
2023-02-19T20:05:58.165Z,17.60
2023-02-19T20:09:01.513Z,21.10
2023-02-19T20:12:05.257Z,15.40
2023-02-19T20:15:09.736Z,13.60
2023-02-19T20:18:13.121Z,14.60
2023-02-19T20:21:16.363Z,16.40
2023-02-19T20:24:26.039Z,14.40
2023-02-19T20:27:29.398Z,16.50
2023-02-19T20:36:58.759Z,19.90
2023-02-19T20:43:31.499Z,21.50
2023-02-19T20:47:18.452Z,22.50
2023-02-19T20:55:35.844Z,16.60
2023-02-19T20:59:19.915Z,13.10
2023-02-19T21:08:22.458Z,14.50
2023-02-19T21:19:10.442Z,14.70
2023-02-19T21:22:35.460Z,14.80
2023-02-19T21:29:59.415Z,15.50
2023-02-19T21:39:03.123Z,15.80
2023-02-19T21:42:06.756Z,14.90
2023-02-19T21:45:10.327Z,15.90
2023-02-19T21:48:13.976Z,17.50
2023-02-19T21:51:19.141Z,17.10
2023-02-19T21:54:24.954Z,16.40
2023-02-19T21:57:28.342Z,14.30
2023-02-19T22:00:31.996Z,15.30
2023-02-19T22:03:35.297Z,13.70
2023-02-19T22:06:41.514Z,15.70
2023-02-19T22:09:44.800Z,13.00
2023-02-19T22:12:48.150Z,15.30
2023-02-19T22:15:51.394Z,15.40
2023-02-19T22:18:59.482Z,15.30
2023-02-19T22:22:03.152Z,14.80
2023-02-19T22:25:06.950Z,18.30
2023-02-19T22:28:10.425Z,20.50
2023-02-19T22:31:15.788Z,20.40
2023-02-19T22:34:19.142Z,23.50
2023-02-19T22:37:22.517Z,19.70
2023-02-19T22:40:25.834Z,20.00
2023-02-19T22:43:29.112Z,19.00
2023-02-19T22:46:32.360Z,17.30
2023-02-19T22:49:38.710Z,20.30
2023-02-19T22:52:42.233Z,15.70
2023-02-19T22:55:45.603Z,16.40
2023-02-19T22:58:48.963Z,16.10
2023-02-19T23:01:53.226Z,15.20
2023-02-19T23:04:56.652Z,18.40
2023-02-19T23:08:00.128Z,18.90
2023-02-19T23:11:03.385Z,18.40
2023-02-19T23:14:08.023Z,19.40
2023-02-19T23:17:11.501Z,18.90
2023-02-19T23:20:14.820Z,15.10
2023-02-19T23:23:18.157Z,16.50
2023-02-19T23:26:21.509Z,14.30
2023-02-19T23:29:27.119Z,16.20
2023-02-19T23:32:30.397Z,17.20
2023-02-19T23:35:33.679Z,18.50
2023-02-19T23:38:37.177Z,19.60
2023-02-19T23:41:46.452Z,15.20
2023-02-19T23:44:49.786Z,20.80
2023-02-19T23:47:53.155Z,17.40
2023-02-19T23:50:56.421Z,19.70
2023-02-19T23:53:59.881Z,21.50
2023-02-19T23:57:03.235Z,24.30
